Time;durP1;ratioP1;P1;durP2;ratioP2;P2;SDS_P1;SDS_P2;PMS_P1;PMS_P2;Temp;Humidity;BMP_temperature;BMP_pressure;BME280_temperature;BME280_humidity;BME280_pressure;Samples;Min_cycle;Max_cycle;Signal;HPM_P1;HPM_P2
2022/07/21 00:04:41;;;;;;;3.28;2.50;;;;;;;;;;21001152;28;20215;-73
2022/07/21 00:14:43;;;;;;;5.13;3.17;;;;;;;;;;20999569;28;20250;-73
2022/07/21 00:24:44;;;;;;;4.05;2.85;;;;;;;;;;20998986;28;20764;-73
2022/07/21 00:34:46;;;;;;;3.50;2.75;;;;;;;;;;20980829;28;20324;-72
2022/07/21 00:44:48;;;;;;;4.80;2.80;;;;;;;;;;20996054;28;20269;-71
2022/07/21 00:54:50;;;;;;;3.55;2.67;;;;;;;;;;20980202;28;20204;-71
2022/07/21 01:04:52;;;;;;;3.78;2.83;;;;;;;;;;20962715;28;20775;-71
2022/07/21 01:14:53;;;;;;;3.83;2.50;;;;;;;;;;20909354;28;20212;-72
2022/07/21 01:24:55;;;;;;;3.72;2.72;;;;;;;;;;20893893;28;20291;-72
2022/07/21 01:34:57;;;;;;;3.53;2.92;;;;;;;;;;20893974;28;20260;-73
2022/07/21 01:44:59;;;;;;;4.00;3.08;;;;;;;;;;20922339;28;20236;-71
2022/07/21 01:55:00;;;;;;;4.93;2.90;;;;;;;;;;20920259;28;20592;-72
2022/07/21 02:05:02;;;;;;;3.65;2.95;;;;;;;;;;20991770;28;20220;-72
2022/07/21 02:15:04;;;;;;;4.43;3.17;;;25.80;99.90;;;;;;20986671;28;20613;-71
2022/07/21 02:25:06;;;;;;;3.28;2.80;;;;;;;;;;20989049;28;20212;-72
2022/07/21 02:35:09;;;;;;;3.95;3.30;;;;;;;;;;20971248;28;20228;-71
2022/07/21 02:45:11;;;;;;;4.95;3.60;;;25.60;99.90;;;;;;20986857;28;20575;-72
2022/07/21 02:55:13;;;;;;;4.10;3.17;;;;;;;;;;20952810;28;20220;-72
2022/07/21 03:05:15;;;;;;;5.45;3.63;;;;;;;;;;20986412;28;20244;-72
2022/07/21 03:15:18;;;;;;;3.50;2.70;;;;;;;;;;20919600;28;20249;-72
2022/07/21 03:25:21;;;;;;;4.95;2.50;;;25.40;99.90;;;;;;20902917;28;20645;-72
2022/07/21 03:35:23;;;;;;;3.28;2.85;;;;;;;;;;20903775;28;20209;-72
2022/07/21 03:45:25;;;;;;;3.58;3.13;;;25.30;99.90;;;;;;20902685;28;20220;-72
2022/07/21 03:55:27;;;;;;;3.67;3.30;;;25.20;99.90;;;;;;20885333;28;20248;-71
2022/07/21 04:05:29;;;;;;;3.95;2.78;;;25.00;99.90;;;;;;20902090;28;20258;-71
2022/07/21 04:15:31;;;;;;;5.00;3.40;;;;;;;;;;20951562;28;20191;-71
2022/07/21 04:25:32;;;;;;;3.05;2.47;;;;;;;;;;20991788;28;20591;-72
2022/07/21 04:35:35;;;;;;;4.88;3.10;;;;;;;;;;20997994;28;20185;-72
2022/07/21 04:45:37;;;;;;;3.10;2.42;;;;;;;;;;20991876;28;20216;-72
2022/07/21 04:55:38;;;;;;;3.17;2.80;;;;;;;;;;20996398;28;20187;-72
2022/07/21 05:05:40;;;;;;;3.88;2.95;;;;;;;;;;20996174;28;20212;-71
2022/07/21 05:15:42;;;;;;;3.50;2.95;;;;;;;;;;20988201;28;20605;-71
2022/07/21 05:25:43;;;;;;;2.83;2.50;;;;;;;;;;20909593;28;20255;-70
2022/07/21 05:35:45;;;;;;;3.97;2.65;;;;;;;;;;20968136;22;20222;-73
2022/07/21 05:45:47;;;;;;;3.35;2.50;;;;;;;;;;21102399;28;20218;-72
2022/07/21 05:55:48;;;;;;;3.53;2.83;;;;;;;;;;21092336;28;20262;-72
2022/07/21 06:05:52;;;;;;;4.75;3.40;;;;;;;;;;21082319;28;20217;-73
2022/07/21 06:15:54;;;;;;;5.60;3.08;;;;;;;;;;21054204;28;20201;-72
2022/07/21 06:25:56;;;;;;;3.70;3.00;;;;;;;;;;21073673;28;20779;-72
2022/07/21 06:35:58;;;;;;;4.18;2.80;;;;;;;;;;21072323;28;20214;-72
2022/07/21 06:46:00;;;;;;;3.10;2.60;;;;;;;;;;21072631;28;20805;-71
2022/07/21 06:56:01;;;;;;;3.95;2.85;;;;;;;;;;21071091;28;20276;-72
2022/07/21 07:06:04;;;;;;;4.82;2.40;;;;;;;;;;21069023;28;20215;-72
2022/07/21 07:16:06;;;;;;;3.08;2.30;;;;;;;;;;21059304;28;20214;-72
2022/07/21 07:26:26;;;;;;;3.47;2.65;;;;;;;;;;21061625;28;20275;-72
2022/07/21 07:36:28;;;;;;;3.85;2.13;;;;;;;;;;21070901;28;20634;-72
2022/07/21 07:46:30;;;;;;;3.08;2.38;;;;;;;;;;21057394;28;20826;-73
2022/07/21 07:56:33;;;;;;;3.17;2.17;;;;;;;;;;21067834;28;20214;-72
2022/07/21 08:06:34;;;;;;;2.30;1.90;;;;;;;;;;21136350;28;20283;-72
2022/07/21 08:16:36;;;;;;;3.67;2.47;;;;;;;;;;21083698;28;20249;-73
2022/07/21 08:26:38;;;;;;;2.83;1.88;;;;;;;;;;21083292;28;20235;-73
2022/07/21 08:36:39;;;;;;;3.30;2.35;;;;;;;;;;21080162;28;20275;-72
2022/07/21 08:46:42;;;;;;;2.42;1.75;;;;;;;;;;21079323;28;20239;-72
2022/07/21 08:56:43;;;;;;;3.90;1.67;;;;;;;;;;21054212;28;20202;-72
2022/07/21 09:06:53;;;;;;;2.22;1.52;;;;;;;;;;21067230;28;20204;-73
2022/07/21 09:16:59;;;;;;;1.80;1.33;;;;;;;;;;21147985;28;20215;-73
2022/07/21 09:27:03;;;;;;;2.00;1.30;;;26.90;99.90;;;;;;21156992;28;20782;-73
2022/07/21 09:37:06;;;;;;;1.90;1.30;;;;;;;;;;21162350;28;20217;-73
2022/07/21 09:47:14;;;;;;;1.48;1.10;;;;;;;;;;21160484;28;20223;-73
2022/07/21 09:57:17;;;;;;;2.60;1.33;;;27.00;99.90;;;;;;21105506;28;20648;-75
2022/07/21 10:07:20;;;;;;;2.08;1.20;;;;;;;;;;21229909;27;20228;-73
2022/07/21 10:17:22;;;;;;;1.55;1.20;;;;;;;;;;21243342;27;20206;-73
2022/07/21 10:27:24;;;;;;;1.73;1.20;;;;;;;;;;21241186;27;20218;-73
2022/07/21 10:37:41;;;;;;;1.88;1.20;;;28.00;88.40;;;;;;21220720;27;20261;-73
2022/07/21 10:47:43;;;;;;;2.65;1.33;;;;;;;;;;21219769;28;20262;-75
2022/07/21 10:57:45;;;;;;;3.30;1.33;;;27.70;99.90;;;;;;21237048;28;20208;-74
2022/07/21 11:08:15;;;;;;;1.80;1.30;;;28.20;87.60;;;;;;21236978;28;20675;-82
2022/07/21 11:18:22;;;;;;;2.17;1.42;;;28.10;95.60;;;;;;21202918;28;20206;-77
2022/07/21 11:28:24;;;;;;;2.95;1.65;;;;;;;;;;21237859;27;20620;-76
2022/07/21 11:38:26;;;;;;;1.73;1.30;;;;;;;;;;21106377;28;1112828;-80
2022/07/21 11:48:32;;;;;;;1.90;1.17;;;;;;;;;;21162856;28;20283;-80
2022/07/21 11:58:34;;;;;;;2.00;1.10;;;;;;;;;;21178715;28;20214;-80
2022/07/21 12:08:36;;;;;;;2.35;1.52;;;;;;;;;;21206218;28;20278;-81
2022/07/21 12:18:37;;;;;;;1.55;1.20;;;;;;;;;;21103015;28;20257;-79
2022/07/21 12:28:46;;;;;;;2.20;1.40;;;;;;;;;;21137407;28;20689;-81
2022/07/21 12:38:50;;;;;;;2.53;1.30;;;28.40;88.40;;;;;;21161295;28;20218;-78
2022/07/21 12:49:02;;;;;;;1.70;1.10;;;;;;;;;;21119537;28;20226;-79
2022/07/21 12:59:05;;;;;;;1.90;1.00;;;;;;;;;;21205154;27;20291;-78
2022/07/21 13:09:07;;;;;;;2.42;1.10;;;;;;;;;;21188649;27;20229;-78
2022/07/21 13:19:09;;;;;;;1.95;1.17;;;;;;;;;;21249045;27;20677;-80
2022/07/21 13:29:10;;;;;;;1.33;0.93;;;;;;;;;;21236738;27;20226;-77
2022/07/21 13:39:12;;;;;;;2.45;1.20;;;;;;;;;;21225259;27;20222;-78
2022/07/21 13:49:14;;;;;;;2.65;1.70;;;;;;;;;;21231406;27;20217;-78
2022/07/21 13:59:15;;;;;;;2.70;1.00;;;;;;;;;;21212884;27;20211;-77
2022/07/21 14:09:17;;;;;;;2.13;1.27;;;;;;;;;;21212772;27;20275;-77
2022/07/21 14:19:19;;;;;;;1.60;1.30;;;29.10;90.80;;;;;;21254237;27;20202;-80
2022/07/21 14:29:21;;;;;;;1.83;1.23;;;;;;;;;;21236096;27;20371;-79
2022/07/21 14:39:23;;;;;;;2.88;1.23;;;;;;;;;;21213251;27;20266;-78
2022/07/21 14:49:24;;;;;;;3.17;1.27;;;;;;;;;;21203088;27;20493;-78
2022/07/21 14:59:26;;;;;;;1.77;1.15;;;;;;;;;;21196736;27;20259;-78
2022/07/21 15:09:28;;;;;;;2.10;1.42;;;;;;;;;;21244837;27;20218;-78
2022/07/21 15:19:29;;;;;;;3.08;1.30;;;;;;;;;;21143109;27;20228;-78
2022/07/21 15:29:31;;;;;;;1.90;1.30;;;;;;;;;;21134236;28;20697;-78
2022/07/21 15:39:33;;;;;;;2.00;1.40;;;;;;;;;;21133462;28;20210;-78
2022/07/21 15:49:35;;;;;;;2.30;1.17;;;;;;;;;;21134702;28;20710;-78
2022/07/21 15:59:37;;;;;;;2.35;1.30;;;;;;;;;;21152861;28;20207;-77
2022/07/21 16:09:39;;;;;;;3.45;1.60;;;;;;;;;;21152729;28;20280;-77
2022/07/21 16:19:41;;;;;;;1.50;1.00;;;;;;;;;;21150889;27;20218;-77
2022/07/21 16:29:43;;;;;;;2.17;1.23;;;;;;;;;;21163931;27;20326;-78
2022/07/21 16:39:45;;;;;;;2.10;1.45;;;;;;;;;;21134358;28;20234;-79
2022/07/21 16:49:47;;;;;;;1.50;1.00;;;;;;;;;;21153420;28;20210;-78
2022/07/21 16:59:49;;;;;;;2.22;1.25;;;;;;;;;;21113725;28;20211;-78
2022/07/21 17:09:51;;;;;;;2.00;1.23;;;;;;;;;;21075073;28;20219;-78
2022/07/21 17:19:52;;;;;;;1.65;1.10;;;;;;;;;;21121702;28;20218;-78
2022/07/21 17:29:54;;;;;;;2.17;0.93;;;29.10;82.70;;;;;;21134712;28;20228;-77
2022/07/21 17:39:56;;;;;;;2.38;1.40;;;;;;;;;;21131359;28;20271;-77
2022/07/21 17:49:58;;;;;;;1.88;1.15;;;;;;;;;;21114323;28;20211;-78
2022/07/21 17:59:59;;;;;;;1.50;1.10;;;;;;;;;;21128830;28;20212;-77
2022/07/21 18:10:01;;;;;;;3.03;0.95;;;;;;;;;;21127269;28;20272;-79
2022/07/21 18:20:04;;;;;;;3.53;1.02;;;;;;;;;;21150513;22;20240;-72
2022/07/21 18:30:06;;;;;;;1.90;1.35;;;28.40;87.60;;;;;;21131258;28;20218;-72
2022/07/21 18:40:09;;;;;;;1.70;0.98;;;28.30;86.40;;;;;;21128875;28;20211;-73
2022/07/21 18:50:11;;;;;;;3.10;1.23;;;;;;;;;;21128224;28;20268;-72
2022/07/21 19:00:14;;;;;;;3.00;1.35;;;28.00;95.00;;;;;;21152915;28;20292;-72
2022/07/21 19:10:19;;;;;;;3.08;1.10;;;27.90;94.80;;;;;;21165435;28;20226;-72
2022/07/21 19:20:21;;;;;;;2.67;1.05;;;;;;;;;;21147065;28;20601;-72
2022/07/21 19:30:23;;;;;;;3.25;1.48;;;;;;;;;;21142965;28;20541;-72
2022/07/21 19:40:28;;;;;;;1.60;1.20;;;27.60;96.80;;;;;;21136418;28;20211;-72
2022/07/21 19:50:35;;;;;;;4.20;1.20;;;;;;;;;;21129956;28;20225;-72
2022/07/21 20:00:37;;;;;;;2.20;1.30;;;27.40;94.10;;;;;;21137622;28;20627;-72
2022/07/21 20:10:40;;;;;;;1.92;1.00;;;;;;;;;;21159867;28;20223;-72
2022/07/21 20:20:42;;;;;;;1.90;1.25;;;26.70;94.70;;;;;;21159846;28;20221;-72
2022/07/21 20:30:44;;;;;;;2.22;1.40;;;;;;;;;;21154800;28;20240;-72
2022/07/21 20:40:46;;;;;;;3.33;1.20;;;;;;;;;;21150994;28;20222;-72
2022/07/21 20:50:48;;;;;;;1.95;1.40;;;;;;;;;;21140892;28;20271;-72
2022/07/21 21:00:50;;;;;;;3.30;1.67;;;;;;;;;;21158583;28;20251;-72
2022/07/21 21:10:52;;;;;;;2.58;1.40;;;;;;;;;;21154887;28;20881;-72
2022/07/21 21:20:54;;;;;;;2.15;1.55;;;;;;;;;;21150840;28;20277;-71
2022/07/21 21:30:55;;;;;;;3.00;1.67;;;;;;;;;;21155702;28;20747;-71
2022/07/21 21:40:57;;;;;;;2.03;1.60;;;;;;;;;;21120006;28;20256;-71
2022/07/21 21:50:59;;;;;;;1.83;1.30;;;;;;;;;;21155724;28;20206;-71
2022/07/21 22:01:01;;;;;;;2.47;1.58;;;;;;;;;;21160480;28;20733;-71
2022/07/21 22:11:02;;;;;;;3.15;1.65;;;;;;;;;;21074023;28;20246;-70
2022/07/21 22:21:04;;;;;;;2.45;1.58;;;;;;;;;;21072881;28;20215;-71
2022/07/21 22:31:06;;;;;;;3.47;2.05;;;;;;;;;;21067930;28;20216;-71
2022/07/21 22:41:08;;;;;;;2.92;1.80;;;;;;;;;;21071724;28;20248;-71
2022/07/21 22:51:09;;;;;;;1.73;1.35;;;;;;;;;;21072875;28;20214;-71
2022/07/21 23:01:12;;;;;;;2.38;1.75;;;25.10;99.90;;;;;;21072029;28;20204;-71
2022/07/21 23:11:13;;;;;;;2.42;1.70;;;;;;;;;;21070109;28;20214;-71
2022/07/21 23:21:16;;;;;;;2.25;1.60;;;;;;;;;;21068479;28;20215;-71
2022/07/21 23:31:18;;;;;;;2.95;1.52;;;;;;;;;;21051411;28;20196;-71
2022/07/21 23:41:20;;;;;;;3.38;1.65;;;;;;;;;;21051435;28;20219;-71
2022/07/21 23:51:21;;;;;;;1.95;1.50;;;;;;;;;;21068779;28;20608;-72
